sensor_id;sensor_type;location;lat;lon;timestamp;P1;durP1;ratioP1;P2;durP2;ratioP2
75216;SDS011;63800;51.972;5.682;2023-02-08T00:00:42;14.18;;;8.52;;
75216;SDS011;63800;51.972;5.682;2023-02-08T00:03:07;14.65;;;8.88;;
75216;SDS011;63800;51.972;5.682;2023-02-08T00:05:33;16.63;;;8.85;;
75216;SDS011;63800;51.972;5.682;2023-02-08T00:07:58;14.63;;;8.23;;
75216;SDS011;63800;51.972;5.682;2023-02-08T00:10:24;14.50;;;8.80;;
75216;SDS011;63800;51.972;5.682;2023-02-08T00:12:50;14.52;;;8.57;;
75216;SDS011;63800;51.972;5.682;2023-02-08T00:15:16;14.43;;;8.13;;
75216;SDS011;63800;51.972;5.682;2023-02-08T00:17:42;18.48;;;9.00;;
75216;SDS011;63800;51.972;5.682;2023-02-08T00:20:07;13.27;;;8.40;;
75216;SDS011;63800;51.972;5.682;2023-02-08T00:22:33;14.95;;;8.50;;
75216;SDS011;63800;51.972;5.682;2023-02-08T00:24:59;14.88;;;8.15;;
75216;SDS011;63800;51.972;5.682;2023-02-08T00:27:24;15.00;;;9.05;;
75216;SDS011;63800;51.972;5.682;2023-02-08T00:29:50;15.00;;;8.95;;
75216;SDS011;63800;51.972;5.682;2023-02-08T00:32:15;15.10;;;8.75;;
75216;SDS011;63800;51.972;5.682;2023-02-08T00:34:41;16.58;;;8.48;;
75216;SDS011;63800;51.972;5.682;2023-02-08T00:37:06;16.10;;;8.65;;
75216;SDS011;63800;51.972;5.682;2023-02-08T00:39:31;16.00;;;8.98;;
75216;SDS011;63800;51.972;5.682;2023-02-08T00:41:57;14.40;;;8.93;;
75216;SDS011;63800;51.972;5.682;2023-02-08T00:44:22;16.45;;;9.27;;
75216;SDS011;63800;51.972;5.682;2023-02-08T00:46:48;18.13;;;9.55;;
75216;SDS011;63800;51.972;5.682;2023-02-08T00:49:13;17.20;;;10.45;;
75216;SDS011;63800;51.972;5.682;2023-02-08T00:51:39;17.48;;;9.88;;
75216;SDS011;63800;51.972;5.682;2023-02-08T00:54:04;16.90;;;9.77;;
75216;SDS011;63800;51.972;5.682;2023-02-08T00:56:30;18.20;;;10.40;;
75216;SDS011;63800;51.972;5.682;2023-02-08T00:58:55;19.05;;;9.88;;
75216;SDS011;63800;51.972;5.682;2023-02-08T01:01:20;18.17;;;10.52;;
75216;SDS011;63800;51.972;5.682;2023-02-08T01:03:46;19.85;;;11.32;;
75216;SDS011;63800;51.972;5.682;2023-02-08T01:06:13;19.00;;;11.30;;
75216;SDS011;63800;51.972;5.682;2023-02-08T01:08:41;20.10;;;10.90;;
75216;SDS011;63800;51.972;5.682;2023-02-08T01:11:08;22.27;;;11.75;;
75216;SDS011;63800;51.972;5.682;2023-02-08T01:13:40;21.92;;;11.98;;
75216;SDS011;63800;51.972;5.682;2023-02-08T01:18:39;16.13;;;9.98;;
75216;SDS011;63800;51.972;5.682;2023-02-08T01:21:11;20.67;;;11.15;;
75216;SDS011;63800;51.972;5.682;2023-02-08T01:23:38;20.48;;;11.27;;
75216;SDS011;63800;51.972;5.682;2023-02-08T01:26:08;15.88;;;10.25;;
75216;SDS011;63800;51.972;5.682;2023-02-08T01:28:34;21.17;;;11.35;;
75216;SDS011;63800;51.972;5.682;2023-02-08T01:31:05;18.67;;;10.63;;
75216;SDS011;63800;51.972;5.682;2023-02-08T01:33:31;20.65;;;10.80;;
75216;SDS011;63800;51.972;5.682;2023-02-08T01:35:56;16.88;;;10.20;;
75216;SDS011;63800;51.972;5.682;2023-02-08T01:38:22;16.35;;;10.15;;
75216;SDS011;63800;51.972;5.682;2023-02-08T01:40:47;16.75;;;11.00;;
75216;SDS011;63800;51.972;5.682;2023-02-08T01:43:56;20.83;;;11.25;;
75216;SDS011;63800;51.972;5.682;2023-02-08T01:46:18;19.42;;;10.75;;
75216;SDS011;63800;51.972;5.682;2023-02-08T01:48:44;19.90;;;11.23;;
75216;SDS011;63800;51.972;5.682;2023-02-08T01:51:11;18.58;;;11.18;;
75216;SDS011;63800;51.972;5.682;2023-02-08T01:53:44;19.88;;;10.98;;
75216;SDS011;63800;51.972;5.682;2023-02-08T01:56:12;22.48;;;11.48;;
75216;SDS011;63800;51.972;5.682;2023-02-08T01:58:42;19.02;;;11.77;;
75216;SDS011;63800;51.972;5.682;2023-02-08T02:01:13;16.58;;;10.55;;
75216;SDS011;63800;51.972;5.682;2023-02-08T02:03:40;18.85;;;11.18;;
75216;SDS011;63800;51.972;5.682;2023-02-08T02:06:15;19.73;;;11.93;;
75216;SDS011;63800;51.972;5.682;2023-02-08T02:08:50;20.75;;;11.10;;
75216;SDS011;63800;51.972;5.682;2023-02-08T02:11:31;20.60;;;11.57;;
75216;SDS011;63800;51.972;5.682;2023-02-08T02:13:57;19.85;;;11.43;;
75216;SDS011;63800;51.972;5.682;2023-02-08T02:16:24;22.27;;;12.10;;
75216;SDS011;63800;51.972;5.682;2023-02-08T02:18:49;19.63;;;11.48;;
75216;SDS011;63800;51.972;5.682;2023-02-08T02:21:50;19.70;;;11.38;;
75216;SDS011;63800;51.972;5.682;2023-02-08T02:27:31;19.70;;;10.98;;
75216;SDS011;63800;51.972;5.682;2023-02-08T02:33:26;17.55;;;11.15;;
75216;SDS011;63800;51.972;5.682;2023-02-08T02:44:24;18.05;;;11.10;;
75216;SDS011;63800;51.972;5.682;2023-02-08T02:47:09;19.90;;;10.88;;
75216;SDS011;63800;51.972;5.682;2023-02-08T02:49:42;18.10;;;10.52;;
75216;SDS011;63800;51.972;5.682;2023-02-08T02:52:18;17.30;;;10.38;;
75216;SDS011;63800;51.972;5.682;2023-02-08T02:54:52;18.27;;;10.63;;
75216;SDS011;63800;51.972;5.682;2023-02-08T02:57:28;17.92;;;10.20;;
75216;SDS011;63800;51.972;5.682;2023-02-08T02:59:56;18.65;;;10.23;;
75216;SDS011;63800;51.972;5.682;2023-02-08T03:02:23;17.38;;;11.45;;
75216;SDS011;63800;51.972;5.682;2023-02-08T03:04:51;19.13;;;9.88;;
75216;SDS011;63800;51.972;5.682;2023-02-08T03:15:27;16.70;;;9.68;;
75216;SDS011;63800;51.972;5.682;2023-02-08T03:20:52;18.70;;;10.00;;
75216;SDS011;63800;51.972;5.682;2023-02-08T03:23:29;19.38;;;10.85;;
75216;SDS011;63800;51.972;5.682;2023-02-08T03:26:06;17.90;;;9.95;;
75216;SDS011;63800;51.972;5.682;2023-02-08T03:31:14;16.30;;;9.90;;
75216;SDS011;63800;51.972;5.682;2023-02-08T03:33:48;15.02;;;9.50;;
75216;SDS011;63800;51.972;5.682;2023-02-08T03:38:49;16.50;;;9.55;;
75216;SDS011;63800;51.972;5.682;2023-02-08T03:41:25;18.17;;;10.02;;
75216;SDS011;63800;51.972;5.682;2023-02-08T03:44:03;14.95;;;9.40;;
75216;SDS011;63800;51.972;5.682;2023-02-08T03:46:34;15.73;;;9.30;;
75216;SDS011;63800;51.972;5.682;2023-02-08T03:49:06;16.45;;;9.57;;
75216;SDS011;63800;51.972;5.682;2023-02-08T03:51:34;16.20;;;9.23;;
75216;SDS011;63800;51.972;5.682;2023-02-08T03:54:03;17.73;;;10.00;;
75216;SDS011;63800;51.972;5.682;2023-02-08T03:59:25;15.82;;;9.35;;
75216;SDS011;63800;51.972;5.682;2023-02-08T04:02:01;18.98;;;9.80;;
75216;SDS011;63800;51.972;5.682;2023-02-08T04:04:30;18.05;;;10.13;;
75216;SDS011;63800;51.972;5.682;2023-02-08T04:06:58;19.38;;;10.05;;
75216;SDS011;63800;51.972;5.682;2023-02-08T04:09:24;18.98;;;9.98;;
75216;SDS011;63800;51.972;5.682;2023-02-08T04:11:49;20.17;;;10.65;;
75216;SDS011;63800;51.972;5.682;2023-02-08T04:14:16;17.35;;;10.18;;
75216;SDS011;63800;51.972;5.682;2023-02-08T04:16:41;19.58;;;10.80;;
75216;SDS011;63800;51.972;5.682;2023-02-08T04:19:07;18.67;;;10.73;;
75216;SDS011;63800;51.972;5.682;2023-02-08T04:21:32;19.20;;;11.00;;
75216;SDS011;63800;51.972;5.682;2023-02-08T04:23:58;21.77;;;10.98;;
75216;SDS011;63800;51.972;5.682;2023-02-08T04:26:23;19.08;;;10.55;;
75216;SDS011;63800;51.972;5.682;2023-02-08T04:28:49;20.40;;;11.43;;
75216;SDS011;63800;51.972;5.682;2023-02-08T04:31:14;20.45;;;10.40;;
75216;SDS011;63800;51.972;5.682;2023-02-08T04:33:40;18.77;;;10.45;;
75216;SDS011;63800;51.972;5.682;2023-02-08T04:36:05;15.32;;;9.65;;
75216;SDS011;63800;51.972;5.682;2023-02-08T04:38:31;18.67;;;10.23;;
75216;SDS011;63800;51.972;5.682;2023-02-08T04:40:56;17.77;;;9.88;;
75216;SDS011;63800;51.972;5.682;2023-02-08T04:43:22;17.38;;;9.82;;
75216;SDS011;63800;51.972;5.682;2023-02-08T04:45:50;17.08;;;9.60;;
75216;SDS011;63800;51.972;5.682;2023-02-08T04:48:16;16.10;;;9.70;;
75216;SDS011;63800;51.972;5.682;2023-02-08T04:50:42;19.73;;;9.90;;
75216;SDS011;63800;51.972;5.682;2023-02-08T04:53:08;18.67;;;10.35;;
75216;SDS011;63800;51.972;5.682;2023-02-08T04:55:33;17.52;;;9.88;;
75216;SDS011;63800;51.972;5.682;2023-02-08T04:57:59;17.33;;;9.75;;
75216;SDS011;63800;51.972;5.682;2023-02-08T05:00:24;19.50;;;9.98;;
75216;SDS011;63800;51.972;5.682;2023-02-08T05:02:54;16.98;;;9.25;;
75216;SDS011;63800;51.972;5.682;2023-02-08T05:05:21;18.50;;;9.73;;
75216;SDS011;63800;51.972;5.682;2023-02-08T05:07:47;16.80;;;9.70;;
75216;SDS011;63800;51.972;5.682;2023-02-08T05:10:12;18.45;;;9.63;;
75216;SDS011;63800;51.972;5.682;2023-02-08T05:12:38;16.88;;;9.45;;
75216;SDS011;63800;51.972;5.682;2023-02-08T05:15:03;18.40;;;9.88;;
75216;SDS011;63800;51.972;5.682;2023-02-08T05:17:29;16.95;;;9.75;;
75216;SDS011;63800;51.972;5.682;2023-02-08T05:19:54;16.67;;;9.57;;
75216;SDS011;63800;51.972;5.682;2023-02-08T05:22:19;15.25;;;9.20;;
75216;SDS011;63800;51.972;5.682;2023-02-08T05:24:45;16.48;;;9.57;;
75216;SDS011;63800;51.972;5.682;2023-02-08T05:27:10;17.65;;;10.35;;
75216;SDS011;63800;51.972;5.682;2023-02-08T05:29:36;21.52;;;10.35;;
75216;SDS011;63800;51.972;5.682;2023-02-08T05:32:01;17.20;;;10.13;;
75216;SDS011;63800;51.972;5.682;2023-02-08T05:34:27;17.08;;;9.90;;
75216;SDS011;63800;51.972;5.682;2023-02-08T05:36:53;17.10;;;10.35;;
75216;SDS011;63800;51.972;5.682;2023-02-08T05:39:18;17.63;;;9.43;;
75216;SDS011;63800;51.972;5.682;2023-02-08T05:41:44;18.70;;;10.32;;
75216;SDS011;63800;51.972;5.682;2023-02-08T05:44:09;17.50;;;10.38;;
75216;SDS011;63800;51.972;5.682;2023-02-08T05:46:35;16.98;;;9.93;;
75216;SDS011;63800;51.972;5.682;2023-02-08T05:49:00;18.95;;;10.60;;
75216;SDS011;63800;51.972;5.682;2023-02-08T05:51:26;19.60;;;10.73;;
75216;SDS011;63800;51.972;5.682;2023-02-08T05:53:51;20.65;;;10.40;;
75216;SDS011;63800;51.972;5.682;2023-02-08T05:56:17;19.27;;;10.80;;
75216;SDS011;63800;51.972;5.682;2023-02-08T05:58:42;19.35;;;10.55;;
75216;SDS011;63800;51.972;5.682;2023-02-08T06:01:08;16.98;;;9.93;;
75216;SDS011;63800;51.972;5.682;2023-02-08T06:03:35;21.00;;;10.38;;
75216;SDS011;63800;51.972;5.682;2023-02-08T06:06:01;23.08;;;11.82;;
75216;SDS011;63800;51.972;5.682;2023-02-08T06:08:26;16.27;;;10.75;;
75216;SDS011;63800;51.972;5.682;2023-02-08T06:10:52;18.40;;;10.90;;
75216;SDS011;63800;51.972;5.682;2023-02-08T06:13:17;19.05;;;10.63;;
75216;SDS011;63800;51.972;5.682;2023-02-08T06:15:42;19.15;;;10.98;;
75216;SDS011;63800;51.972;5.682;2023-02-08T06:18:08;19.45;;;10.88;;
75216;SDS011;63800;51.972;5.682;2023-02-08T06:20:34;19.30;;;10.50;;
75216;SDS011;63800;51.972;5.682;2023-02-08T06:22:59;21.75;;;11.43;;
75216;SDS011;63800;51.972;5.682;2023-02-08T06:25:25;18.20;;;11.10;;
75216;SDS011;63800;51.972;5.682;2023-02-08T06:27:51;19.98;;;10.38;;
75216;SDS011;63800;51.972;5.682;2023-02-08T06:30:16;21.90;;;11.98;;
75216;SDS011;63800;51.972;5.682;2023-02-08T06:32:42;22.20;;;11.25;;
75216;SDS011;63800;51.972;5.682;2023-02-08T06:35:07;22.95;;;12.52;;
75216;SDS011;63800;51.972;5.682;2023-02-08T06:37:33;22.95;;;11.02;;
75216;SDS011;63800;51.972;5.682;2023-02-08T06:39:58;20.23;;;11.38;;
75216;SDS011;63800;51.972;5.682;2023-02-08T06:42:25;20.95;;;10.35;;
75216;SDS011;63800;51.972;5.682;2023-02-08T06:44:51;21.90;;;10.57;;
75216;SDS011;63800;51.972;5.682;2023-02-08T06:47:19;18.27;;;10.73;;
75216;SDS011;63800;51.972;5.682;2023-02-08T06:49:45;16.73;;;9.98;;
75216;SDS011;63800;51.972;5.682;2023-02-08T06:52:11;17.02;;;9.90;;
75216;SDS011;63800;51.972;5.682;2023-02-08T06:54:36;18.98;;;10.65;;
75216;SDS011;63800;51.972;5.682;2023-02-08T06:57:02;16.42;;;9.68;;
75216;SDS011;63800;51.972;5.682;2023-02-08T06:59:27;18.02;;;10.52;;
75216;SDS011;63800;51.972;5.682;2023-02-08T07:01:54;18.63;;;10.57;;
75216;SDS011;63800;51.972;5.682;2023-02-08T07:04:19;18.33;;;10.50;;
75216;SDS011;63800;51.972;5.682;2023-02-08T07:06:46;17.40;;;10.00;;
75216;SDS011;63800;51.972;5.682;2023-02-08T07:09:13;22.23;;;10.77;;
75216;SDS011;63800;51.972;5.682;2023-02-08T07:11:39;19.35;;;10.23;;
75216;SDS011;63800;51.972;5.682;2023-02-08T07:14:09;21.77;;;10.70;;
75216;SDS011;63800;51.972;5.682;2023-02-08T07:16:36;18.65;;;10.32;;
75216;SDS011;63800;51.972;5.682;2023-02-08T07:19:02;17.88;;;10.18;;
75216;SDS011;63800;51.972;5.682;2023-02-08T07:21:27;18.75;;;9.93;;
75216;SDS011;63800;51.972;5.682;2023-02-08T07:23:53;20.23;;;10.85;;
75216;SDS011;63800;51.972;5.682;2023-02-08T07:26:18;19.92;;;10.70;;
75216;SDS011;63800;51.972;5.682;2023-02-08T07:28:44;18.90;;;10.13;;
75216;SDS011;63800;51.972;5.682;2023-02-08T07:31:11;20.42;;;10.10;;
75216;SDS011;63800;51.972;5.682;2023-02-08T07:33:38;17.63;;;9.82;;
75216;SDS011;63800;51.972;5.682;2023-02-08T07:36:05;18.83;;;9.75;;
75216;SDS011;63800;51.972;5.682;2023-02-08T07:38:32;18.88;;;9.80;;
75216;SDS011;63800;51.972;5.682;2023-02-08T07:41:11;15.95;;;9.43;;
75216;SDS011;63800;51.972;5.682;2023-02-08T07:43:37;17.25;;;9.45;;
75216;SDS011;63800;51.972;5.682;2023-02-08T07:46:08;19.48;;;9.57;;
75216;SDS011;63800;51.972;5.682;2023-02-08T07:48:36;18.80;;;10.43;;
75216;SDS011;63800;51.972;5.682;2023-02-08T07:51:02;16.25;;;9.93;;
75216;SDS011;63800;51.972;5.682;2023-02-08T07:53:28;16.30;;;9.52;;
75216;SDS011;63800;51.972;5.682;2023-02-08T07:55:54;19.25;;;10.32;;
75216;SDS011;63800;51.972;5.682;2023-02-08T07:58:20;16.75;;;9.25;;
75216;SDS011;63800;51.972;5.682;2023-02-08T08:00:45;18.23;;;10.30;;
75216;SDS011;63800;51.972;5.682;2023-02-08T08:03:11;17.13;;;10.00;;
75216;SDS011;63800;51.972;5.682;2023-02-08T08:05:38;16.10;;;9.50;;
75216;SDS011;63800;51.972;5.682;2023-02-08T08:08:05;16.83;;;9.00;;
75216;SDS011;63800;51.972;5.682;2023-02-08T08:10:30;16.05;;;9.63;;
75216;SDS011;63800;51.972;5.682;2023-02-08T08:12:56;17.90;;;9.50;;
75216;SDS011;63800;51.972;5.682;2023-02-08T08:15:21;14.75;;;9.13;;
75216;SDS011;63800;51.972;5.682;2023-02-08T08:17:47;15.32;;;9.25;;
75216;SDS011;63800;51.972;5.682;2023-02-08T08:20:12;17.35;;;9.50;;
75216;SDS011;63800;51.972;5.682;2023-02-08T08:22:38;17.50;;;9.52;;
75216;SDS011;63800;51.972;5.682;2023-02-08T08:25:03;21.20;;;10.80;;
75216;SDS011;63800;51.972;5.682;2023-02-08T08:27:29;17.50;;;9.43;;
75216;SDS011;63800;51.972;5.682;2023-02-08T08:29:54;16.83;;;9.93;;
75216;SDS011;63800;51.972;5.682;2023-02-08T08:32:20;15.77;;;10.10;;
75216;SDS011;63800;51.972;5.682;2023-02-08T08:34:45;16.02;;;9.73;;
75216;SDS011;63800;51.972;5.682;2023-02-08T08:37:11;17.77;;;10.05;;
75216;SDS011;63800;51.972;5.682;2023-02-08T08:39:36;20.25;;;10.32;;
75216;SDS011;63800;51.972;5.682;2023-02-08T08:42:02;16.58;;;10.13;;
75216;SDS011;63800;51.972;5.682;2023-02-08T08:44:31;17.70;;;9.57;;
75216;SDS011;63800;51.972;5.682;2023-02-08T08:46:57;19.02;;;9.35;;
75216;SDS011;63800;51.972;5.682;2023-02-08T08:49:23;15.90;;;9.57;;
75216;SDS011;63800;51.972;5.682;2023-02-08T08:51:50;18.42;;;10.00;;
75216;SDS011;63800;51.972;5.682;2023-02-08T08:54:16;17.73;;;9.65;;
75216;SDS011;63800;51.972;5.682;2023-02-08T08:56:42;17.98;;;9.32;;
75216;SDS011;63800;51.972;5.682;2023-02-08T08:59:08;13.77;;;8.80;;
75216;SDS011;63800;51.972;5.682;2023-02-08T09:01:33;16.80;;;9.10;;
75216;SDS011;63800;51.972;5.682;2023-02-08T09:03:59;17.73;;;9.52;;
75216;SDS011;63800;51.972;5.682;2023-02-08T09:06:24;18.80;;;9.73;;
75216;SDS011;63800;51.972;5.682;2023-02-08T09:08:50;15.40;;;9.60;;
75216;SDS011;63800;51.972;5.682;2023-02-08T09:11:15;19.17;;;10.00;;
75216;SDS011;63800;51.972;5.682;2023-02-08T09:13:41;18.25;;;10.27;;
75216;SDS011;63800;51.972;5.682;2023-02-08T09:16:08;20.52;;;9.80;;
75216;SDS011;63800;51.972;5.682;2023-02-08T09:18:38;18.58;;;10.20;;
75216;SDS011;63800;51.972;5.682;2023-02-08T09:21:04;17.23;;;9.75;;
75216;SDS011;63800;51.972;5.682;2023-02-08T09:23:34;16.60;;;9.27;;
75216;SDS011;63800;51.972;5.682;2023-02-08T09:26:01;16.20;;;9.57;;
75216;SDS011;63800;51.972;5.682;2023-02-08T09:28:28;17.92;;;9.65;;
75216;SDS011;63800;51.972;5.682;2023-02-08T09:30:53;19.85;;;10.20;;
75216;SDS011;63800;51.972;5.682;2023-02-08T09:33:18;18.98;;;10.60;;
75216;SDS011;63800;51.972;5.682;2023-02-08T09:35:44;16.60;;;9.57;;
75216;SDS011;63800;51.972;5.682;2023-02-08T09:38:09;17.75;;;9.88;;
75216;SDS011;63800;51.972;5.682;2023-02-08T09:41:00;17.83;;;10.27;;
75216;SDS011;63800;51.972;5.682;2023-02-08T09:43:35;19.00;;;9.68;;
75216;SDS011;63800;51.972;5.682;2023-02-08T09:46:14;16.55;;;9.65;;
75216;SDS011;63800;51.972;5.682;2023-02-08T09:48:43;16.60;;;9.60;;
75216;SDS011;63800;51.972;5.682;2023-02-08T09:54:07;18.00;;;10.35;;
75216;SDS011;63800;51.972;5.682;2023-02-08T09:56:40;16.02;;;9.63;;
75216;SDS011;63800;51.972;5.682;2023-02-08T09:59:20;17.60;;;9.07;;
75216;SDS011;63800;51.972;5.682;2023-02-08T10:01:50;18.65;;;10.13;;
75216;SDS011;63800;51.972;5.682;2023-02-08T10:04:23;15.77;;;8.80;;
75216;SDS011;63800;51.972;5.682;2023-02-08T10:06:54;17.52;;;9.27;;
75216;SDS011;63800;51.972;5.682;2023-02-08T10:09:21;18.02;;;11.13;;
75216;SDS011;63800;51.972;5.682;2023-02-08T10:11:57;16.42;;;9.32;;
75216;SDS011;63800;51.972;5.682;2023-02-08T10:14:49;15.35;;;9.30;;
75216;SDS011;63800;51.972;5.682;2023-02-08T10:28:47;16.83;;;10.07;;
75216;SDS011;63800;51.972;5.682;2023-02-08T10:31:51;16.80;;;9.30;;
75216;SDS011;63800;51.972;5.682;2023-02-08T10:34:43;19.67;;;9.38;;
75216;SDS011;63800;51.972;5.682;2023-02-08T10:37:44;18.42;;;9.27;;
75216;SDS011;63800;51.972;5.682;2023-02-08T10:42:45;15.40;;;10.13;;
75216;SDS011;63800;51.972;5.682;2023-02-08T10:48:03;16.23;;;9.88;;
75216;SDS011;63800;51.972;5.682;2023-02-08T10:50:34;14.52;;;8.57;;
75216;SDS011;63800;51.972;5.682;2023-02-08T10:53:03;16.02;;;9.30;;
75216;SDS011;63800;51.972;5.682;2023-02-08T10:55:29;18.75;;;9.13;;
75216;SDS011;63800;51.972;5.682;2023-02-08T10:57:58;14.98;;;8.80;;
75216;SDS011;63800;51.972;5.682;2023-02-08T11:00:29;12.77;;;8.35;;
75216;SDS011;63800;51.972;5.682;2023-02-08T11:02:58;14.82;;;8.60;;
75216;SDS011;63800;51.972;5.682;2023-02-08T11:05:34;12.95;;;8.00;;
75216;SDS011;63800;51.972;5.682;2023-02-08T11:08:04;12.93;;;7.78;;
75216;SDS011;63800;51.972;5.682;2023-02-08T11:10:34;15.57;;;8.75;;
75216;SDS011;63800;51.972;5.682;2023-02-08T11:13:03;16.10;;;8.20;;
75216;SDS011;63800;51.972;5.682;2023-02-08T11:21:23;15.32;;;8.75;;
75216;SDS011;63800;51.972;5.682;2023-02-08T11:23:50;20.52;;;8.80;;
75216;SDS011;63800;51.972;5.682;2023-02-08T11:28:59;14.13;;;7.97;;
75216;SDS011;63800;51.972;5.682;2023-02-08T11:34:26;12.18;;;7.57;;
75216;SDS011;63800;51.972;5.682;2023-02-08T11:37:21;15.00;;;8.13;;
75216;SDS011;63800;51.972;5.682;2023-02-08T11:39:53;12.63;;;7.82;;
75216;SDS011;63800;51.972;5.682;2023-02-08T11:42:27;11.88;;;7.65;;
75216;SDS011;63800;51.972;5.682;2023-02-08T11:44:58;12.13;;;7.85;;
75216;SDS011;63800;51.972;5.682;2023-02-08T11:47:25;12.40;;;7.05;;
75216;SDS011;63800;51.972;5.682;2023-02-08T11:49:58;11.07;;;7.03;;
75216;SDS011;63800;51.972;5.682;2023-02-08T11:52:29;10.85;;;7.55;;
75216;SDS011;63800;51.972;5.682;2023-02-08T12:00:34;10.43;;;7.28;;
75216;SDS011;63800;51.972;5.682;2023-02-08T12:03:06;9.88;;;6.72;;
75216;SDS011;63800;51.972;5.682;2023-02-08T12:05:43;11.77;;;7.43;;
75216;SDS011;63800;51.972;5.682;2023-02-08T12:13:41;11.32;;;6.75;;
75216;SDS011;63800;51.972;5.682;2023-02-08T12:17:27;10.40;;;6.93;;
75216;SDS011;63800;51.972;5.682;2023-02-08T12:24:35;9.27;;;5.97;;
75216;SDS011;63800;51.972;5.682;2023-02-08T12:27:32;8.50;;;6.00;;
75216;SDS011;63800;51.972;5.682;2023-02-08T12:55:05;5.00;;;3.90;;
75216;SDS011;63800;51.972;5.682;2023-02-08T12:57:43;4.70;;;4.20;;
75216;SDS011;63800;51.972;5.682;2023-02-08T13:06:00;4.28;;;3.50;;
75216;SDS011;63800;51.972;5.682;2023-02-08T13:08:30;5.07;;;3.70;;
75216;SDS011;63800;51.972;5.682;2023-02-08T13:11:02;4.73;;;3.80;;
75216;SDS011;63800;51.972;5.682;2023-02-08T13:13:34;4.95;;;4.00;;
75216;SDS011;63800;51.972;5.682;2023-02-08T13:16:11;4.93;;;4.10;;
75216;SDS011;63800;51.972;5.682;2023-02-08T13:23:46;5.22;;;3.83;;
75216;SDS011;63800;51.972;5.682;2023-02-08T13:26:14;4.22;;;3.58;;
75216;SDS011;63800;51.972;5.682;2023-02-08T13:28:48;5.30;;;4.25;;
75216;SDS011;63800;51.972;5.682;2023-02-08T13:36:52;4.78;;;3.70;;
75216;SDS011;63800;51.972;5.682;2023-02-08T13:41:58;4.15;;;3.42;;
75216;SDS011;63800;51.972;5.682;2023-02-08T13:44:35;5.32;;;4.10;;
75216;SDS011;63800;51.972;5.682;2023-02-08T13:47:02;6.05;;;3.90;;
75216;SDS011;63800;51.972;5.682;2023-02-08T13:49:50;4.30;;;3.85;;
75216;SDS011;63800;51.972;5.682;2023-02-08T13:57:56;6.38;;;4.28;;
75216;SDS011;63800;51.972;5.682;2023-02-08T14:00:32;5.32;;;3.90;;
75216;SDS011;63800;51.972;5.682;2023-02-08T14:05:43;6.72;;;4.07;;
75216;SDS011;63800;51.972;5.682;2023-02-08T14:08:21;4.10;;;3.70;;
75216;SDS011;63800;51.972;5.682;2023-02-08T14:13:52;4.68;;;3.75;;
75216;SDS011;63800;51.972;5.682;2023-02-08T14:16:43;7.10;;;3.42;;
75216;SDS011;63800;51.972;5.682;2023-02-08T14:21:45;6.68;;;4.00;;
75216;SDS011;63800;51.972;5.682;2023-02-08T14:24:25;7.80;;;3.70;;
75216;SDS011;63800;51.972;5.682;2023-02-08T14:27:07;5.78;;;3.72;;
75216;SDS011;63800;51.972;5.682;2023-02-08T14:29:40;5.82;;;4.13;;
75216;SDS011;63800;51.972;5.682;2023-02-08T14:32:06;6.65;;;3.90;;
75216;SDS011;63800;51.972;5.682;2023-02-08T14:34:33;8.55;;;4.10;;
75216;SDS011;63800;51.972;5.682;2023-02-08T14:39:50;8.55;;;3.92;;
75216;SDS011;63800;51.972;5.682;2023-02-08T14:45:27;6.50;;;3.90;;
75216;SDS011;63800;51.972;5.682;2023-02-08T14:58:34;7.75;;;4.72;;
75216;SDS011;63800;51.972;5.682;2023-02-08T15:01:11;5.93;;;4.40;;
75216;SDS011;63800;51.972;5.682;2023-02-08T15:03:41;7.72;;;4.75;;
75216;SDS011;63800;51.972;5.682;2023-02-08T15:06:21;6.70;;;4.43;;
75216;SDS011;63800;51.972;5.682;2023-02-08T15:08:53;8.27;;;4.85;;
75216;SDS011;63800;51.972;5.682;2023-02-08T15:11:29;6.38;;;4.68;;
75216;SDS011;63800;51.972;5.682;2023-02-08T15:13:57;6.65;;;4.28;;
75216;SDS011;63800;51.972;5.682;2023-02-08T15:16:31;6.50;;;4.45;;
75216;SDS011;63800;51.972;5.682;2023-02-08T15:19:03;5.88;;;4.10;;
75216;SDS011;63800;51.972;5.682;2023-02-08T15:21:31;6.07;;;4.15;;
75216;SDS011;63800;51.972;5.682;2023-02-08T15:24:01;6.65;;;3.85;;
75216;SDS011;63800;51.972;5.682;2023-02-08T15:26:31;7.78;;;4.30;;
75216;SDS011;63800;51.972;5.682;2023-02-08T15:28:57;6.43;;;4.35;;
75216;SDS011;63800;51.972;5.682;2023-02-08T15:31:29;7.28;;;4.38;;
75216;SDS011;63800;51.972;5.682;2023-02-08T15:33:57;9.20;;;4.50;;
75216;SDS011;63800;51.972;5.682;2023-02-08T15:36:30;8.27;;;4.68;;
75216;SDS011;63800;51.972;5.682;2023-02-08T15:39:00;7.38;;;4.15;;
75216;SDS011;63800;51.972;5.682;2023-02-08T15:41:29;6.45;;;4.13;;
75216;SDS011;63800;51.972;5.682;2023-02-08T15:44:01;5.45;;;3.85;;
75216;SDS011;63800;51.972;5.682;2023-02-08T15:46:49;6.65;;;4.63;;
75216;SDS011;63800;51.972;5.682;2023-02-08T15:49:23;8.35;;;4.50;;
75216;SDS011;63800;51.972;5.682;2023-02-08T15:51:54;6.78;;;4.28;;
75216;SDS011;63800;51.972;5.682;2023-02-08T15:54:21;5.40;;;4.15;;
75216;SDS011;63800;51.972;5.682;2023-02-08T15:57:08;6.35;;;3.95;;
75216;SDS011;63800;51.972;5.682;2023-02-08T15:59:52;5.95;;;4.20;;
75216;SDS011;63800;51.972;5.682;2023-02-08T16:04:52;7.05;;;4.35;;
75216;SDS011;63800;51.972;5.682;2023-02-08T16:07:41;5.72;;;3.85;;
75216;SDS011;63800;51.972;5.682;2023-02-08T16:10:07;5.30;;;3.75;;
75216;SDS011;63800;51.972;5.682;2023-02-08T16:12:57;5.78;;;3.78;;
75216;SDS011;63800;51.972;5.682;2023-02-08T16:15:32;5.22;;;4.07;;
75216;SDS011;63800;51.972;5.682;2023-02-08T16:17:58;6.15;;;3.80;;
75216;SDS011;63800;51.972;5.682;2023-02-08T16:20:28;8.27;;;4.55;;
75216;SDS011;63800;51.972;5.682;2023-02-08T16:25:43;7.28;;;4.35;;
75216;SDS011;63800;51.972;5.682;2023-02-08T16:28:21;6.15;;;3.53;;
75216;SDS011;63800;51.972;5.682;2023-02-08T16:30:48;5.35;;;3.60;;
75216;SDS011;63800;51.972;5.682;2023-02-08T16:33:13;3.45;;;3.00;;
75216;SDS011;63800;51.972;5.682;2023-02-08T16:35:39;7.05;;;3.72;;
75216;SDS011;63800;51.972;5.682;2023-02-08T16:38:06;5.60;;;3.50;;
75216;SDS011;63800;51.972;5.682;2023-02-08T16:40:53;5.35;;;3.72;;
75216;SDS011;63800;51.972;5.682;2023-02-08T16:51:20;5.13;;;3.65;;
75216;SDS011;63800;51.972;5.682;2023-02-08T16:53:49;5.03;;;3.22;;
75216;SDS011;63800;51.972;5.682;2023-02-08T16:56:17;5.40;;;3.90;;
75216;SDS011;63800;51.972;5.682;2023-02-08T16:58:42;4.80;;;3.58;;
75216;SDS011;63800;51.972;5.682;2023-02-08T17:01:11;4.13;;;3.63;;
75216;SDS011;63800;51.972;5.682;2023-02-08T17:03:38;6.32;;;3.67;;
75216;SDS011;63800;51.972;5.682;2023-02-08T17:06:04;3.85;;;3.45;;
75216;SDS011;63800;51.972;5.682;2023-02-08T17:08:30;4.65;;;3.42;;
75216;SDS011;63800;51.972;5.682;2023-02-08T17:10:57;5.82;;;4.18;;
75216;SDS011;63800;51.972;5.682;2023-02-08T17:13:23;5.53;;;3.58;;
75216;SDS011;63800;51.972;5.682;2023-02-08T17:15:51;4.93;;;3.65;;
75216;SDS011;63800;51.972;5.682;2023-02-08T17:18:17;6.10;;;3.67;;
75216;SDS011;63800;51.972;5.682;2023-02-08T17:20:43;6.50;;;3.80;;
75216;SDS011;63800;51.972;5.682;2023-02-08T17:23:10;6.80;;;3.92;;
75216;SDS011;63800;51.972;5.682;2023-02-08T17:25:36;8.38;;;3.75;;
75216;SDS011;63800;51.972;5.682;2023-02-08T17:28:05;8.23;;;4.22;;
75216;SDS011;63800;51.972;5.682;2023-02-08T17:30:37;5.97;;;3.80;;
75216;SDS011;63800;51.972;5.682;2023-02-08T17:33:05;6.30;;;4.07;;
75216;SDS011;63800;51.972;5.682;2023-02-08T17:35:32;4.78;;;3.58;;
75216;SDS011;63800;51.972;5.682;2023-02-08T17:37:58;5.18;;;3.80;;